Impacts METAR Board
IDs:

KDTW - Detroit Metro/Wayne, MI, US

Updated at: 0500 UTC 07 Dec 2022
Potential Impact None Slight Moderate High
Time 06/17Z 06/18Z 06/19Z 06/20Z 06/21Z 06/22Z 06/23Z 07/00Z 07/01Z 07/02Z 07/03Z 07/04Z 07/05Z
Temp45 45 46 46 46 45 44 44 44 43 43 44 44
Dewpt37 37 37 32 33 36 38 39 39 41 41 42 41
Altim30.05 30.05 30.03 30.03 30.03 30.03 30.04 30.05 30.05 30.06 30.05 30.06 30.07
VIS9 9 9 9 9 10 8 8 6 2.5 2.5 1.75 1.5
CIG13 25 23 20 20 20 15 10 9 6 4 4 6
CoverOVCOVCOVCOVCOVCOVCOVCOVCOVCOVCOVCOVCOVC
FltCatMVFRMVFRMVFRMVFRMVFRMVFRMVFRMVFRIFRIFRLIFRLIFRIFR
WX----------------HZBRBRBRBR
WDir180006070700507005020350
WSpd5 0 4 4 8 7 3 6 4 0 3 3 4
WGst-- -- -- -- -- -- -- -- -- -- -- -- --
Raw hourly METARs
KDTW 061653Z 18005KT 9SM BKN013 BKN018 OVC032 07/03 A3005 RMK AO2 PRESRR SLP180 T00720028 PNO
KDTW 061753Z 00000KT 9SM OVC025 07/03 A3005 RMK AO2 SLP178 T00720028 10078 20050 53002 PNO
KDTW 061853Z VRB04KT 9SM OVC023 08/03 A3003 RMK AO2 SLP172 T00780028 PNO
KDTW 061953Z 06004KT 9SM OVC020 08/00 A3003 RMK AO2 SLP172 T00780000 PNO
KDTW 062053Z 07008KT 9SM BKN020 OVC045 08/01 A3003 RMK AO2 SLP170 T00780006 56007 PNO
KDTW 062153Z 07007KT 10SM BKN020 OVC045 07/02 A3003 RMK AO2 SLP174 T00720022 PNO
KDTW 062253Z VRB03KT 8SM OVC015 07/03 A3004 RMK AO2 SLP178 T00670033 PNO
KDTW 062353Z 05006KT 8SM OVC010 07/04 A3005 RMK AO2 SLP181 T00670039 10083 20067 52009 PNO
KDTW 070053Z 07004KT 6SM HZ OVC009 07/04 A3005 RMK AO2 SLP181 T00670039 PNO
KDTW 070200Z 00000KT 2 1/2SM BR OVC006 06/05 A3006 RMK AO2 T00610050 PNO
KDTW 070253Z 05003KT 2 1/2SM BR OVC004 06/05 A3005 RMK AO2 SLP180 T00610050 50001 PNO
KDTW 070353Z 02003KT 1 3/4SM BR OVC004 07/06 A3006 RMK AO2 TWR VIS 2 1/2 SLP181 T00670056 PNO
KDTW 070453Z 35004KT 1 1/2SM BR OVC006 07/05 A3007 RMK AO2 TWR VIS 2 1/2 RAB10E28 SLP184 P0001 T00670050 400830044



Page loaded:  05:52 UTC  |   09:52 PM Pacific  |   10:52 PM Mountain  |   11:52 PM Central  |   12:52 AM Eastern

 

ADVISORIES

FORECASTS

FORECASTS

OBSERVATIONS

USER TOOLS

ABOUT US